sensor_id;sensor_type;location;lat;lon;timestamp;pressure;altitude;pressure_sealevel;temperature;humidity
4085;BME280;2057;50.858;6.572;2023-03-15T00:01:16;99978.53;;;2.35;100.00
4085;BME280;2057;50.858;6.572;2023-03-15T00:03:45;99985.09;;;2.45;100.00
4085;BME280;2057;50.858;6.572;2023-03-15T00:06:11;100001.88;;;2.46;100.00
4085;BME280;2057;50.858;6.572;2023-03-15T00:08:37;99993.38;;;2.44;100.00
4085;BME280;2057;50.858;6.572;2023-03-15T00:11:03;100005.34;;;2.48;100.00
4085;BME280;2057;50.858;6.572;2023-03-15T00:13:29;100005.16;;;2.45;100.00
4085;BME280;2057;50.858;6.572;2023-03-15T00:15:57;99999.72;;;2.51;100.00
4085;BME280;2057;50.858;6.572;2023-03-15T00:18:24;99996.44;;;2.52;100.00
4085;BME280;2057;50.858;6.572;2023-03-15T00:20:49;100005.81;;;2.55;100.00
4085;BME280;2057;50.858;6.572;2023-03-15T00:23:15;99996.88;;;2.46;100.00
4085;BME280;2057;50.858;6.572;2023-03-15T00:25:45;100001.00;;;2.46;100.00
4085;BME280;2057;50.858;6.572;2023-03-15T00:28:11;100019.53;;;2.48;100.00
4085;BME280;2057;50.858;6.572;2023-03-15T00:30:37;100008.84;;;2.50;100.00
4085;BME280;2057;50.858;6.572;2023-03-15T00:33:03;100001.22;;;2.49;100.00
4085;BME280;2057;50.858;6.572;2023-03-15T00:35:31;100002.09;;;2.49;100.00
4085;BME280;2057;50.858;6.572;2023-03-15T00:37:57;99998.59;;;2.47;100.00
4085;BME280;2057;50.858;6.572;2023-03-15T00:40:23;100002.31;;;2.53;100.00
4085;BME280;2057;50.858;6.572;2023-03-15T00:42:49;100002.22;;;2.51;100.00
4085;BME280;2057;50.858;6.572;2023-03-15T00:45:17;99996.75;;;2.57;100.00
4085;BME280;2057;50.858;6.572;2023-03-15T00:47:43;99994.06;;;2.54;100.00
4085;BME280;2057;50.858;6.572;2023-03-15T00:50:11;99997.00;;;2.60;100.00
4085;BME280;2057;50.858;6.572;2023-03-15T00:52:39;100004.28;;;2.57;100.00
4085;BME280;2057;50.858;6.572;2023-03-15T00:55:09;100004.09;;;2.65;100.00
4085;BME280;2057;50.858;6.572;2023-03-15T00:57:37;100016.63;;;2.65;100.00
4085;BME280;2057;50.858;6.572;2023-03-15T01:00:11;100009.44;;;2.70;100.00
4085;BME280;2057;50.858;6.572;2023-03-15T01:02:40;100020.66;;;2.75;100.00
4085;BME280;2057;50.858;6.572;2023-03-15T01:05:09;100030.69;;;2.75;100.00
4085;BME280;2057;50.858;6.572;2023-03-15T01:07:34;100052.38;;;2.75;100.00
4085;BME280;2057;50.858;6.572;2023-03-15T01:10:03;100056.50;;;2.74;100.00
4085;BME280;2057;50.858;6.572;2023-03-15T01:12:30;100064.47;;;2.69;100.00
4085;BME280;2057;50.858;6.572;2023-03-15T01:15:00;100057.44;;;2.53;100.00
4085;BME280;2057;50.858;6.572;2023-03-15T01:17:26;100060.78;;;2.41;100.00
4085;BME280;2057;50.858;6.572;2023-03-15T01:19:51;100047.50;;;2.42;100.00
4085;BME280;2057;50.858;6.572;2023-03-15T01:22:18;100050.81;;;2.31;100.00
4085;BME280;2057;50.858;6.572;2023-03-15T01:24:45;100058.47;;;2.32;100.00
4085;BME280;2057;50.858;6.572;2023-03-15T01:27:13;100062.84;;;2.35;100.00
4085;BME280;2057;50.858;6.572;2023-03-15T01:29:39;100080.03;;;2.30;100.00
4085;BME280;2057;50.858;6.572;2023-03-15T01:32:04;100070.13;;;2.10;100.00
4085;BME280;2057;50.858;6.572;2023-03-15T01:34:30;100071.88;;;2.11;100.00
4085;BME280;2057;50.858;6.572;2023-03-15T01:36:55;100072.56;;;1.98;100.00
4085;BME280;2057;50.858;6.572;2023-03-15T01:39:20;100072.56;;;1.98;100.00
4085;BME280;2057;50.858;6.572;2023-03-15T01:41:46;100082.59;;;1.98;100.00
4085;BME280;2057;50.858;6.572;2023-03-15T01:44:15;100079.31;;;1.99;100.00
4085;BME280;2057;50.858;6.572;2023-03-15T01:46:43;100087.09;;;2.02;100.00
4085;BME280;2057;50.858;6.572;2023-03-15T01:49:15;100085.84;;;1.97;100.00
4085;BME280;2057;50.858;6.572;2023-03-15T01:54:19;100093.75;;;1.91;100.00
4085;BME280;2057;50.858;6.572;2023-03-15T01:59:29;100104.13;;;1.63;100.00
4085;BME280;2057;50.858;6.572;2023-03-15T02:01:58;100100.38;;;1.58;100.00
4085;BME280;2057;50.858;6.572;2023-03-15T02:04:36;100099.81;;;1.50;100.00
4085;BME280;2057;50.858;6.572;2023-03-15T02:07:03;100080.03;;;1.43;100.00
4085;BME280;2057;50.858;6.572;2023-03-15T02:09:36;100072.34;;;1.19;100.00
4085;BME280;2057;50.858;6.572;2023-03-15T02:12:06;100061.63;;;1.10;100.00
4085;BME280;2057;50.858;6.572;2023-03-15T02:14:32;100069.75;;;0.97;100.00
4085;BME280;2057;50.858;6.572;2023-03-15T02:16:58;100073.78;;;0.85;100.00
4085;BME280;2057;50.858;6.572;2023-03-15T02:27:50;100061.94;;;0.61;100.00
4085;BME280;2057;50.858;6.572;2023-03-15T02:30:16;100063.44;;;0.70;100.00
4085;BME280;2057;50.858;6.572;2023-03-15T02:32:42;100073.41;;;0.59;100.00
4085;BME280;2057;50.858;6.572;2023-03-15T02:35:07;100074.41;;;0.61;100.00
4085;BME280;2057;50.858;6.572;2023-03-15T02:37:33;100074.41;;;0.61;100.00
4085;BME280;2057;50.858;6.572;2023-03-15T02:40:00;100073.41;;;0.59;100.00
4085;BME280;2057;50.858;6.572;2023-03-15T02:42:26;100078.41;;;0.59;100.00
4085;BME280;2057;50.858;6.572;2023-03-15T02:44:53;100079.41;;;0.61;100.00
4085;BME280;2057;50.858;6.572;2023-03-15T02:47:21;100067.19;;;0.65;100.00
4085;BME280;2057;50.858;6.572;2023-03-15T02:49:50;100079.41;;;0.61;100.00
4085;BME280;2057;50.858;6.572;2023-03-15T02:52:17;100079.91;;;0.68;100.00
4085;BME280;2057;50.858;6.572;2023-03-15T02:54:42;100080.69;;;0.56;100.00
4085;BME280;2057;50.858;6.572;2023-03-15T02:57:18;100077.16;;;0.54;100.00
4085;BME280;2057;50.858;6.572;2023-03-15T02:59:43;100072.91;;;0.53;100.00
4085;BME280;2057;50.858;6.572;2023-03-15T03:02:09;100079.31;;;0.60;100.00
4085;BME280;2057;50.858;6.572;2023-03-15T03:04:38;100095.03;;;0.59;100.00
4085;BME280;2057;50.858;6.572;2023-03-15T03:07:05;100097.16;;;0.54;100.00
4085;BME280;2057;50.858;6.572;2023-03-15T03:09:31;100093.16;;;0.67;100.00
4085;BME280;2057;50.858;6.572;2023-03-15T03:11:58;100094.16;;;0.69;100.00
4085;BME280;2057;50.858;6.572;2023-03-15T03:14:24;100099.91;;;0.68;100.00
4085;BME280;2057;50.858;6.572;2023-03-15T03:16:51;100101.28;;;0.64;100.00
4085;BME280;2057;50.858;6.572;2023-03-15T03:19:20;100100.16;;;0.71;100.00
4085;BME280;2057;50.858;6.572;2023-03-15T03:21:50;100107.41;;;0.78;100.00
4085;BME280;2057;50.858;6.572;2023-03-15T03:24:16;100098.25;;;0.78;100.00
4085;BME280;2057;50.858;6.572;2023-03-15T03:26:42;100107.03;;;0.84;100.00
4085;BME280;2057;50.858;6.572;2023-03-15T03:29:10;100106.75;;;0.81;100.00
4085;BME280;2057;50.858;6.572;2023-03-15T03:31:35;100097.88;;;0.84;100.00
4085;BME280;2057;50.858;6.572;2023-03-15T03:34:05;100112.13;;;0.96;100.00
4085;BME280;2057;50.858;6.572;2023-03-15T03:36:30;100111.50;;;0.88;100.00
4085;BME280;2057;50.858;6.572;2023-03-15T03:38:55;100118.78;;;0.95;100.00
4085;BME280;2057;50.858;6.572;2023-03-15T03:41:23;100121.75;;;1.01;100.00
4085;BME280;2057;50.858;6.572;2023-03-15T03:43:48;100123.25;;;1.09;100.00
4085;BME280;2057;50.858;6.572;2023-03-15T03:46:14;100122.00;;;1.04;100.00
4085;BME280;2057;50.858;6.572;2023-03-15T03:48:40;100120.75;;;1.09;100.00
4085;BME280;2057;50.858;6.572;2023-03-15T03:51:08;100118.00;;;1.06;100.00
4085;BME280;2057;50.858;6.572;2023-03-15T03:53:33;100119.88;;;1.09;100.00
4085;BME280;2057;50.858;6.572;2023-03-15T03:56:04;100124.88;;;1.09;100.00
4085;BME280;2057;50.858;6.572;2023-03-15T03:58:29;100127.13;;;1.06;100.00
4085;BME280;2057;50.858;6.572;2023-03-15T04:00:54;100133.00;;;1.17;100.00
4085;BME280;2057;50.858;6.572;2023-03-15T04:03:20;100141.50;;;1.19;100.00
4085;BME280;2057;50.858;6.572;2023-03-15T04:05:53;100146.63;;;1.10;100.00
4085;BME280;2057;50.858;6.572;2023-03-15T04:08:19;100147.88;;;1.15;100.00
4085;BME280;2057;50.858;6.572;2023-03-15T04:10:48;100149.84;;;1.19;100.00
4085;BME280;2057;50.858;6.572;2023-03-15T04:13:14;100155.88;;;1.21;100.00
4085;BME280;2057;50.858;6.572;2023-03-15T04:15:39;100157.50;;;1.21;100.00
4085;BME280;2057;50.858;6.572;2023-03-15T04:18:05;100169.59;;;1.27;100.00
4085;BME280;2057;50.858;6.572;2023-03-15T04:20:30;100164.00;;;1.29;100.00
4085;BME280;2057;50.858;6.572;2023-03-15T04:23:01;100172.25;;;1.28;100.00
4085;BME280;2057;50.858;6.572;2023-03-15T04:25:26;100175.75;;;1.20;100.00
4085;BME280;2057;50.858;6.572;2023-03-15T04:27:53;100187.97;;;1.06;100.00
4085;BME280;2057;50.858;6.572;2023-03-15T04:30:30;100181.97;;;1.04;100.00
4085;BME280;2057;50.858;6.572;2023-03-15T04:32:56;100189.50;;;0.94;100.00
4085;BME280;2057;50.858;6.572;2023-03-15T04:35:33;100182.09;;;0.85;100.00
4085;BME280;2057;50.858;6.572;2023-03-15T04:38:03;100187.22;;;0.87;100.00
4085;BME280;2057;50.858;6.572;2023-03-15T04:40:30;100190.97;;;0.82;100.00
4085;BME280;2057;50.858;6.572;2023-03-15T04:43:00;100193.59;;;0.73;100.00
4085;BME280;2057;50.858;6.572;2023-03-15T04:45:27;100202.34;;;0.78;100.00
4085;BME280;2057;50.858;6.572;2023-03-15T04:47:53;100198.81;;;0.76;100.00
4085;BME280;2057;50.858;6.572;2023-03-15T04:50:22;100201.09;;;0.83;100.00
4085;BME280;2057;50.858;6.572;2023-03-15T04:52:48;100218.19;;;0.78;100.00
4085;BME280;2057;50.858;6.572;2023-03-15T04:55:16;100212.47;;;0.90;100.00
4085;BME280;2057;50.858;6.572;2023-03-15T04:57:41;100220.84;;;0.90;100.00
4085;BME280;2057;50.858;6.572;2023-03-15T05:00:08;100216.84;;;0.92;100.00
4085;BME280;2057;50.858;6.572;2023-03-15T05:02:35;100222.88;;;1.05;100.00
4085;BME280;2057;50.858;6.572;2023-03-15T05:05:07;100221.09;;;1.04;100.00
4085;BME280;2057;50.858;6.572;2023-03-15T05:07:33;100222.59;;;1.02;100.00
4085;BME280;2057;50.858;6.572;2023-03-15T05:10:00;100219.63;;;1.06;100.00
4085;BME280;2057;50.858;6.572;2023-03-15T05:12:28;100218.72;;;1.05;100.00
4085;BME280;2057;50.858;6.572;2023-03-15T05:14:53;100214.09;;;1.10;100.00
4085;BME280;2057;50.858;6.572;2023-03-15T05:17:19;100218.88;;;1.07;100.00
4085;BME280;2057;50.858;6.572;2023-03-15T05:19:46;100217.88;;;1.05;100.00
4085;BME280;2057;50.858;6.572;2023-03-15T05:22:12;100221.84;;;1.03;100.00
4085;BME280;2057;50.858;6.572;2023-03-15T05:24:38;100227.97;;;0.96;100.00
4085;BME280;2057;50.858;6.572;2023-03-15T05:27:05;100225.84;;;1.01;100.00
4085;BME280;2057;50.858;6.572;2023-03-15T05:29:33;100234.25;;;1.01;100.00
4085;BME280;2057;50.858;6.572;2023-03-15T05:32:01;100233.13;;;1.08;100.00
4085;BME280;2057;50.858;6.572;2023-03-15T05:34:29;100246.00;;;1.02;100.00
4085;BME280;2057;50.858;6.572;2023-03-15T05:36:56;100252.59;;;1.02;100.00
4085;BME280;2057;50.858;6.572;2023-03-15T05:39:22;100246.63;;;1.00;100.00
4085;BME280;2057;50.858;6.572;2023-03-15T05:41:50;100253.72;;;1.05;100.00
4085;BME280;2057;50.858;6.572;2023-03-15T05:44:16;100261.09;;;1.04;100.00
4085;BME280;2057;50.858;6.572;2023-03-15T05:46:41;100265.09;;;1.02;100.00
4085;BME280;2057;50.858;6.572;2023-03-15T05:49:09;100268.22;;;0.99;100.00
4085;BME280;2057;50.858;6.572;2023-03-15T05:51:34;100271.97;;;1.04;100.00
4085;BME280;2057;50.858;6.572;2023-03-15T05:54:00;100270.75;;;1.09;100.00
4085;BME280;2057;50.858;6.572;2023-03-15T05:56:25;100281.75;;;1.12;100.00
4085;BME280;2057;50.858;6.572;2023-03-15T05:58:51;100286.72;;;1.01;100.00
4085;BME280;2057;50.858;6.572;2023-03-15T06:01:16;100283.63;;;1.14;100.00
4085;BME280;2057;50.858;6.572;2023-03-15T06:03:41;100285.38;;;1.15;100.00
4085;BME280;2057;50.858;6.572;2023-03-15T06:06:07;100286.50;;;1.19;100.00
4085;BME280;2057;50.858;6.572;2023-03-15T06:08:32;100290.63;;;1.08;100.00
4085;BME280;2057;50.858;6.572;2023-03-15T06:10:58;100286.88;;;1.13;100.00
4085;BME280;2057;50.858;6.572;2023-03-15T06:13:23;100292.75;;;1.24;100.00
4085;BME280;2057;50.858;6.572;2023-03-15T06:15:48;100295.50;;;1.17;100.00
4085;BME280;2057;50.858;6.572;2023-03-15T06:18:16;100302.50;;;1.21;100.00
4085;BME280;2057;50.858;6.572;2023-03-15T06:20:42;100309.38;;;1.23;100.00
4085;BME280;2057;50.858;6.572;2023-03-15T06:23:08;100311.91;;;1.23;100.00
4085;BME280;2057;50.858;6.572;2023-03-15T06:25:33;100318.44;;;1.42;100.00
4085;BME280;2057;50.858;6.572;2023-03-15T06:27:58;100323.63;;;1.35;100.00
4085;BME280;2057;50.858;6.572;2023-03-15T06:30:25;100328.53;;;1.44;100.00
4085;BME280;2057;50.858;6.572;2023-03-15T06:32:50;100323.91;;;1.38;100.00
4085;BME280;2057;50.858;6.572;2023-03-15T06:35:21;100328.44;;;1.42;100.00
4085;BME280;2057;50.858;6.572;2023-03-15T06:37:46;100331.53;;;1.39;100.00
4085;BME280;2057;50.858;6.572;2023-03-15T06:40:12;100340.16;;;1.43;100.00
4085;BME280;2057;50.858;6.572;2023-03-15T06:42:38;100344.69;;;1.47;100.00
4085;BME280;2057;50.858;6.572;2023-03-15T06:45:06;100346.91;;;1.44;100.00
4085;BME280;2057;50.858;6.572;2023-03-15T06:47:32;100349.03;;;1.39;100.00
4085;BME280;2057;50.858;6.572;2023-03-15T06:49:58;100364.19;;;1.41;100.00
4085;BME280;2057;50.858;6.572;2023-03-15T06:52:24;100362.16;;;1.37;100.00
4085;BME280;2057;50.858;6.572;2023-03-15T06:54:49;100368.81;;;1.36;100.00
4085;BME280;2057;50.858;6.572;2023-03-15T06:57:14;100373.06;;;1.37;100.00
4085;BME280;2057;50.858;6.572;2023-03-15T06:59:42;100379.66;;;1.37;100.00
4085;BME280;2057;50.858;6.572;2023-03-15T07:02:16;100380.81;;;1.40;100.00
4085;BME280;2057;50.858;6.572;2023-03-15T07:04:42;100395.44;;;1.46;100.00
4085;BME280;2057;50.858;6.572;2023-03-15T07:07:11;100394.22;;;1.51;100.00
4085;BME280;2057;50.858;6.572;2023-03-15T07:09:37;100395.59;;;1.58;100.00
4085;BME280;2057;50.858;6.572;2023-03-15T07:12:03;100397.25;;;1.68;100.00
4085;BME280;2057;50.858;6.572;2023-03-15T07:14:29;100409.88;;;1.59;100.00
4085;BME280;2057;50.858;6.572;2023-03-15T07:16:54;100416.50;;;1.59;100.00
4085;BME280;2057;50.858;6.572;2023-03-15T07:19:20;100415.13;;;1.62;100.00
4085;BME280;2057;50.858;6.572;2023-03-15T07:21:48;100421.00;;;1.63;100.00
4085;BME280;2057;50.858;6.572;2023-03-15T07:24:16;100421.16;;;1.64;100.00
4085;BME280;2057;50.858;6.572;2023-03-15T07:26:41;100421.25;;;1.66;100.00
4085;BME280;2057;50.858;6.572;2023-03-15T07:29:06;100428.28;;;1.60;100.00
4085;BME280;2057;50.858;6.572;2023-03-15T07:31:34;100439.53;;;1.65;100.00
4085;BME280;2057;50.858;6.572;2023-03-15T07:33:59;100432.13;;;1.66;100.00
4085;BME280;2057;50.858;6.572;2023-03-15T07:36:26;100436.41;;;1.78;100.00
4085;BME280;2057;50.858;6.572;2023-03-15T07:38:52;100441.91;;;1.73;100.00
4085;BME280;2057;50.858;6.572;2023-03-15T07:41:17;100434.78;;;1.78;100.00
4085;BME280;2057;50.858;6.572;2023-03-15T07:43:43;100442.06;;;1.96;100.00
4085;BME280;2057;50.858;6.572;2023-03-15T07:46:08;100446.47;;;1.98;100.00
4085;BME280;2057;50.858;6.572;2023-03-15T07:48:33;100456.88;;;2.03;100.00
4085;BME280;2057;50.858;6.572;2023-03-15T07:50:59;100462.22;;;1.87;100.00
4085;BME280;2057;50.858;6.572;2023-03-15T07:53:26;100467.09;;;1.96;100.00
4085;BME280;2057;50.858;6.572;2023-03-15T07:55:52;100475.88;;;2.01;100.00
4085;BME280;2057;50.858;6.572;2023-03-15T07:58:19;100478.63;;;2.04;100.00
4085;BME280;2057;50.858;6.572;2023-03-15T08:00:45;100474.13;;;2.10;100.00
4085;BME280;2057;50.858;6.572;2023-03-15T08:03:10;100475.38;;;2.15;100.00
4085;BME280;2057;50.858;6.572;2023-03-15T08:05:36;100477.13;;;2.16;100.00
4085;BME280;2057;50.858;6.572;2023-03-15T08:08:01;100481.88;;;2.13;100.00
4085;BME280;2057;50.858;6.572;2023-03-15T08:10:27;100487.16;;;2.16;100.00
4085;BME280;2057;50.858;6.572;2023-03-15T08:12:55;100498.19;;;2.29;100.00
4085;BME280;2057;50.858;6.572;2023-03-15T08:15:21;100502.31;;;2.28;100.00
4085;BME280;2057;50.858;6.572;2023-03-15T08:17:49;100500.56;;;2.27;100.00
4085;BME280;2057;50.858;6.572;2023-03-15T08:20:15;100516.59;;;2.29;100.00
4085;BME280;2057;50.858;6.572;2023-03-15T08:22:47;100512.97;;;2.26;100.00
4085;BME280;2057;50.858;6.572;2023-03-15T08:25:15;100521.88;;;2.32;100.00
4085;BME280;2057;50.858;6.572;2023-03-15T08:27:43;100523.50;;;2.42;100.00
4085;BME280;2057;50.858;6.572;2023-03-15T08:30:12;100524.88;;;2.49;100.00
4085;BME280;2057;50.858;6.572;2023-03-15T08:32:39;100526.59;;;2.60;100.00
4085;BME280;2057;50.858;6.572;2023-03-15T08:35:05;100530.75;;;2.60;100.00
4085;BME280;2057;50.858;6.572;2023-03-15T08:37:31;100535.03;;;2.61;100.00
4085;BME280;2057;50.858;6.572;2023-03-15T08:40:00;100546.53;;;2.59;100.00
4085;BME280;2057;50.858;6.572;2023-03-15T08:42:29;100547.28;;;2.68;100.00
4085;BME280;2057;50.858;6.572;2023-03-15T08:44:55;100551.94;;;2.74;100.00
4085;BME280;2057;50.858;6.572;2023-03-15T08:47:24;100557.06;;;2.75;100.00
4085;BME280;2057;50.858;6.572;2023-03-15T08:49:49;100572.47;;;2.70;100.00
4085;BME280;2057;50.858;6.572;2023-03-15T08:52:17;100570.34;;;2.85;100.00
4085;BME280;2057;50.858;6.572;2023-03-15T08:54:43;100574.88;;;2.78;100.00
4085;BME280;2057;50.858;6.572;2023-03-15T08:57:08;100576.38;;;2.87;100.00
4085;BME280;2057;50.858;6.572;2023-03-15T08:59:34;100578.72;;;2.95;100.00
4085;BME280;2057;50.858;6.572;2023-03-15T09:02:00;100576.59;;;3.10;100.00
4085;BME280;2057;50.858;6.572;2023-03-15T09:04:28;100586.25;;;3.16;100.00
4085;BME280;2057;50.858;6.572;2023-03-15T09:06:53;100582.88;;;3.16;100.00
4085;BME280;2057;50.858;6.572;2023-03-15T09:09:18;100590.63;;;3.19;100.00
4085;BME280;2057;50.858;6.572;2023-03-15T09:11:44;100588.00;;;3.17;100.00
4085;BME280;2057;50.858;6.572;2023-03-15T09:14:11;100593.28;;;3.20;100.00
4085;BME280;2057;50.858;6.572;2023-03-15T09:16:37;100589.09;;;3.31;100.00
4085;BME280;2057;50.858;6.572;2023-03-15T09:19:02;100597.41;;;3.20;100.00
4085;BME280;2057;50.858;6.572;2023-03-15T09:21:28;100592.72;;;3.35;100.00
4085;BME280;2057;50.858;6.572;2023-03-15T09:23:53;100588.09;;;3.19;100.00
4085;BME280;2057;50.858;6.572;2023-03-15T09:26:18;100591.81;;;3.44;100.00
4085;BME280;2057;50.858;6.572;2023-03-15T09:28:44;100591.88;;;3.24;100.00
4085;BME280;2057;50.858;6.572;2023-03-15T09:31:12;100589.75;;;3.18;100.00
4085;BME280;2057;50.858;6.572;2023-03-15T09:33:37;100603.41;;;3.32;100.00
4085;BME280;2057;50.858;6.572;2023-03-15T09:36:03;100597.53;;;3.64;100.00
4085;BME280;2057;50.858;6.572;2023-03-15T09:38:28;100601.25;;;3.69;100.00
4085;BME280;2057;50.858;6.572;2023-03-15T09:40:57;100608.38;;;3.85;100.00
4085;BME280;2057;50.858;6.572;2023-03-15T09:43:50;100606.41;;;3.81;100.00
4085;BME280;2057;50.858;6.572;2023-03-15T09:49:16;100611.03;;;4.09;100.00
4085;BME280;2057;50.858;6.572;2023-03-15T09:52:04;100617.59;;;4.07;100.00
4085;BME280;2057;50.858;6.572;2023-03-15T09:57:17;100621.28;;;4.22;100.00
4085;BME280;2057;50.858;6.572;2023-03-15T09:59:51;100615.75;;;4.16;100.00
4085;BME280;2057;50.858;6.572;2023-03-15T10:07:23;100617.06;;;4.33;100.00
4085;BME280;2057;50.858;6.572;2023-03-15T10:09:50;100612.69;;;4.31;100.00
4085;BME280;2057;50.858;6.572;2023-03-15T10:12:23;100614.94;;;4.28;100.00
4085;BME280;2057;50.858;6.572;2023-03-15T10:17:50;100611.72;;;4.40;100.00
4085;BME280;2057;50.858;6.572;2023-03-15T10:20:26;100605.88;;;4.52;100.00
4085;BME280;2057;50.858;6.572;2023-03-15T10:22:58;100609.84;;;4.60;100.00
4085;BME280;2057;50.858;6.572;2023-03-15T10:25:28;100607.50;;;4.51;100.00
4085;BME280;2057;50.858;6.572;2023-03-15T10:28:22;100610.50;;;4.58;100.00
4085;BME280;2057;50.858;6.572;2023-03-15T10:30:49;100617.44;;;4.50;100.00
4085;BME280;2057;50.858;6.572;2023-03-15T10:35:51;100612.53;;;4.51;100.00
4085;BME280;2057;50.858;6.572;2023-03-15T10:38:21;100622.78;;;4.20;100.00
4085;BME280;2057;50.858;6.572;2023-03-15T10:40:58;100615.69;;;4.27;100.00
4085;BME280;2057;50.858;6.572;2023-03-15T10:43:32;100616.66;;;4.39;100.00
4085;BME280;2057;50.858;6.572;2023-03-15T10:46:08;100618.03;;;4.58;100.00
4085;BME280;2057;50.858;6.572;2023-03-15T10:48:39;100611.16;;;4.55;100.00
4085;BME280;2057;50.858;6.572;2023-03-15T10:51:30;100608.13;;;4.71;100.00
4085;BME280;2057;50.858;6.572;2023-03-15T10:54:15;100611.59;;;4.61;100.00
4085;BME280;2057;50.858;6.572;2023-03-15T10:56:49;100614.81;;;4.70;100.00
4085;BME280;2057;50.858;6.572;2023-03-15T10:59:24;100617.31;;;4.70;97.63
4085;BME280;2057;50.858;6.572;2023-03-15T11:02:11;100619.19;;;4.73;95.88
4085;BME280;2057;50.858;6.572;2023-03-15T11:04:40;100618.84;;;4.68;91.12
4085;BME280;2057;50.858;6.572;2023-03-15T11:07:06;100623.91;;;4.80;91.13
4085;BME280;2057;50.858;6.572;2023-03-15T11:12:06;100636.09;;;5.10;91.77
4085;BME280;2057;50.858;6.572;2023-03-15T11:14:45;100639.53;;;5.34;91.81
4085;BME280;2057;50.858;6.572;2023-03-15T11:17:18;100645.75;;;5.27;89.57
4085;BME280;2057;50.858;6.572;2023-03-15T11:19:53;100647.94;;;5.34;87.59
4085;BME280;2057;50.858;6.572;2023-03-15T11:22:20;100644.28;;;4.95;89.87
4085;BME280;2057;50.858;6.572;2023-03-15T11:24:46;100657.75;;;5.08;91.65
4085;BME280;2057;50.858;6.572;2023-03-15T11:27:14;100657.25;;;5.36;91.01
4085;BME280;2057;50.858;6.572;2023-03-15T11:29:51;100654.53;;;5.32;89.17
4085;BME280;2057;50.858;6.572;2023-03-15T11:32:28;100655.66;;;5.60;91.40
4085;BME280;2057;50.858;6.572;2023-03-15T11:35:06;100653.56;;;6.02;92.47
4085;BME280;2057;50.858;6.572;2023-03-15T11:37:44;100656.84;;;5.89;86.57
4085;BME280;2057;50.858;6.572;2023-03-15T11:40:20;100666.28;;;5.79;79.48
4085;BME280;2057;50.858;6.572;2023-03-15T11:45:39;100666.06;;;5.64;81.49
4085;BME280;2057;50.858;6.572;2023-03-15T11:48:16;100671.50;;;5.47;76.09
4085;BME280;2057;50.858;6.572;2023-03-15T11:50:44;100672.72;;;5.52;78.07
4085;BME280;2057;50.858;6.572;2023-03-15T11:53:13;100682.47;;;5.59;78.90
4085;BME280;2057;50.858;6.572;2023-03-15T11:55:41;100688.81;;;5.54;79.00
4085;BME280;2057;50.858;6.572;2023-03-15T11:58:32;100681.34;;;5.44;80.00
4085;BME280;2057;50.858;6.572;2023-03-15T12:01:04;100681.25;;;5.42;79.00
4085;BME280;2057;50.858;6.572;2023-03-15T12:06:10;100689.00;;;5.33;78.36
4085;BME280;2057;50.858;6.572;2023-03-15T12:16:25;100684.66;;;5.90;84.29
4085;BME280;2057;50.858;6.572;2023-03-15T12:18:51;100675.78;;;6.19;81.73
4085;BME280;2057;50.858;6.572;2023-03-15T12:21:34;100672.97;;;6.40;82.06
4085;BME280;2057;50.858;6.572;2023-03-15T12:24:06;100673.13;;;6.41;81.89
4085;BME280;2057;50.858;6.572;2023-03-15T12:26:47;100670.28;;;6.62;77.96
4085;BME280;2057;50.858;6.572;2023-03-15T12:29:24;100674.09;;;6.69;78.51
4085;BME280;2057;50.858;6.572;2023-03-15T12:32:13;100664.75;;;6.54;79.02
4085;BME280;2057;50.858;6.572;2023-03-15T12:34:55;100666.63;;;6.45;80.49
4085;BME280;2057;50.858;6.572;2023-03-15T12:53:10;100656.28;;;6.54;80.98
4085;BME280;2057;50.858;6.572;2023-03-15T12:55:37;100649.13;;;6.35;81.01
4085;BME280;2057;50.858;6.572;2023-03-15T12:58:09;100650.44;;;6.30;80.29
4085;BME280;2057;50.858;6.572;2023-03-15T13:00:37;100649.13;;;6.35;82.61
4085;BME280;2057;50.858;6.572;2023-03-15T13:03:07;100651.81;;;6.75;80.47
4085;BME280;2057;50.858;6.572;2023-03-15T13:08:43;100650.97;;;7.27;77.80
4085;BME280;2057;50.858;6.572;2023-03-15T13:11:41;100651.06;;;7.55;77.36
4085;BME280;2057;50.858;6.572;2023-03-15T13:14:35;100652.16;;;7.45;72.44
4085;BME280;2057;50.858;6.572;2023-03-15T13:17:23;100649.19;;;7.12;68.49
4085;BME280;2057;50.858;6.572;2023-03-15T13:20:08;100653.31;;;7.50;69.23
4085;BME280;2057;50.858;6.572;2023-03-15T13:22:52;100643.72;;;7.72;68.12
4085;BME280;2057;50.858;6.572;2023-03-15T13:25:37;100648.16;;;7.89;66.36
4085;BME280;2057;50.858;6.572;2023-03-15T13:28:20;100655.97;;;7.79;66.42
4085;BME280;2057;50.858;6.572;2023-03-15T13:30:48;100657.03;;;7.82;62.35
4085;BME280;2057;50.858;6.572;2023-03-15T13:33:29;100652.56;;;7.65;60.19
4085;BME280;2057;50.858;6.572;2023-03-15T13:36:16;100650.63;;;7.74;64.00
4085;BME280;2057;50.858;6.572;2023-03-15T13:38:54;100661.50;;;7.73;60.33
4085;BME280;2057;50.858;6.572;2023-03-15T13:43:52;100653.13;;;7.74;56.77
4085;BME280;2057;50.858;6.572;2023-03-15T13:46:22;100650.41;;;7.44;57.54
4085;BME280;2057;50.858;6.572;2023-03-15T13:48:48;100659.13;;;7.22;58.91
4085;BME280;2057;50.858;6.572;2023-03-15T13:53:48;100657.59;;;7.38;61.21
4085;BME280;2057;50.858;6.572;2023-03-15T13:56:17;100649.63;;;7.72;64.11
4085;BME280;2057;50.858;6.572;2023-03-15T13:58:43;100657.19;;;7.99;59.46
4085;BME280;2057;50.858;6.572;2023-03-15T14:01:10;100652.72;;;7.68;59.42
4085;BME280;2057;50.858;6.572;2023-03-15T14:03:40;100655.66;;;8.01;60.08
4085;BME280;2057;50.858;6.572;2023-03-15T14:06:12;100656.72;;;8.05;59.01
4085;BME280;2057;50.858;6.572;2023-03-15T14:08:44;100653.19;;;7.89;60.00
4085;BME280;2057;50.858;6.572;2023-03-15T14:11:32;100661.88;;;7.79;60.85
4085;BME280;2057;50.858;6.572;2023-03-15T14:14:00;100666.34;;;7.70;60.40
4085;BME280;2057;50.858;6.572;2023-03-15T14:16:45;100667.41;;;7.60;60.97
4085;BME280;2057;50.858;6.572;2023-03-15T14:19:27;100664.59;;;7.96;61.07
4085;BME280;2057;50.858;6.572;2023-03-15T14:22:00;100662.84;;;7.68;59.93
4085;BME280;2057;50.858;6.572;2023-03-15T14:24:38;100666.16;;;7.67;59.19
4085;BME280;2057;50.858;6.572;2023-03-15T14:27:18;100658.75;;;7.97;56.33
4085;BME280;2057;50.858;6.572;2023-03-15T14:29:59;100662.13;;;8.11;58.78
4085;BME280;2057;50.858;6.572;2023-03-15T14:32:27;100661.28;;;8.10;57.06